Destinations Ivalo Airport

Ivalo Airport (EFIV / IVL)

Flights to Ivalo Airport

Flight number From ETE Dispatch
SPY-328 EHGG Groningen Airport Eelde 03:33

Flights from Ivalo Airport

Flight number To ETE Dispatch
SPY-329 EHGG Groningen Airport Eelde 03:33
About

Ivalo Airport facts

Ivalo Airport is located in Ivalo at an elevation of 146.6 meters or 481 feet.

Currently, Speedy Airlines serves 2 flights to and from Ivalo Airport.

Detailed airport info

Route map

Weather

Current weather

METAR

METAR

Metar data retrieved Sunday, 21 July 2024 at 18:25 UTC

EFIV 211820Z AUTO 19005KT 160V220 CAVOK 25/12 Q1015
Wind Temperature
5 kt 25c